createdAt,value
2018-11-22T00:01:41.437Z,29.73
2018-11-22T00:04:11.397Z,31.40
2018-11-22T00:06:40.861Z,30.53
2018-11-22T00:09:11.233Z,30.47
2018-11-22T00:11:41.148Z,31.60
2018-11-22T00:14:10.625Z,30.80
2018-11-22T00:16:40.296Z,30.40
2018-11-22T00:19:10.130Z,30.40
2018-11-22T00:21:39.540Z,30.63
2018-11-22T00:24:08.940Z,32.37
2018-11-22T00:26:38.305Z,32.40
2018-11-22T00:29:07.929Z,30.13
2018-11-22T00:31:37.389Z,30.27
2018-11-22T00:34:07.201Z,29.80
2018-11-22T00:36:36.636Z,32.03
2018-11-22T00:39:09.277Z,31.97
2018-11-22T00:41:39.021Z,31.97
2018-11-22T00:44:08.408Z,32.73
2018-11-22T00:46:38.087Z,31.50
2018-11-22T00:49:07.903Z,33.40
2018-11-22T00:51:37.665Z,31.27
2018-11-22T00:54:07.408Z,30.30
2018-11-22T00:56:36.784Z,32.07
2018-11-22T00:59:06.274Z,32.10
2018-11-22T01:01:35.732Z,31.90
2018-11-22T01:04:05.592Z,31.13
2018-11-22T01:06:35.000Z,31.50
2018-11-22T01:09:07.180Z,31.90
2018-11-22T01:11:36.606Z,31.10
2018-11-22T01:14:06.169Z,31.90
2018-11-22T01:16:35.873Z,31.13
2018-11-22T01:19:05.885Z,31.23
2018-11-22T01:21:35.817Z,29.53
2018-11-22T01:24:05.227Z,30.00
2018-11-22T01:26:34.609Z,32.67
2018-11-22T01:29:04.114Z,31.60
2018-11-22T01:31:33.632Z,29.23
2018-11-22T01:34:03.673Z,31.40
2018-11-22T01:36:33.885Z,32.30
2018-11-22T01:39:04.068Z,32.47
2018-11-22T01:41:33.545Z,29.90
2018-11-22T01:44:02.944Z,30.50
2018-11-22T01:46:32.328Z,29.27
2018-11-22T01:49:01.793Z,29.37
2018-11-22T01:51:31.176Z,30.93
2018-11-22T01:54:00.877Z,29.00
2018-11-22T01:56:30.608Z,30.43
2018-11-22T01:59:00.137Z,29.17
2018-11-22T02:01:29.548Z,30.93
2018-11-22T02:03:58.970Z,28.20
2018-11-22T02:06:28.393Z,29.80
2018-11-22T02:08:58.114Z,30.70
2018-11-22T02:11:27.507Z,29.23
2018-11-22T02:13:56.912Z,28.97
2018-11-22T02:16:26.288Z,31.53
2018-11-22T02:18:56.054Z,29.57
2018-11-22T02:21:25.457Z,29.80
2018-11-22T02:23:55.353Z,27.47
2018-11-22T02:26:25.177Z,29.70
2018-11-22T02:28:54.909Z,28.00
2018-11-22T02:31:24.752Z,27.33
2018-11-22T02:33:54.137Z,27.50
2018-11-22T02:36:23.593Z,28.30
2018-11-22T02:38:53.112Z,26.70
2018-11-22T02:41:22.796Z,29.57
2018-11-22T02:43:52.221Z,29.03
2018-11-22T02:46:21.677Z,27.87
2018-11-22T02:48:51.068Z,27.50
2018-11-22T02:51:20.730Z,26.57
2018-11-22T02:53:50.105Z,26.67
2018-11-22T02:56:19.592Z,27.60
2018-11-22T02:58:49.514Z,25.93
2018-11-22T03:01:19.521Z,28.90
2018-11-22T03:03:48.917Z,27.40
2018-11-22T03:06:18.373Z,27.57
2018-11-22T03:08:48.500Z,26.07
2018-11-22T03:11:18.073Z,26.90
2018-11-22T03:13:47.443Z,26.37
2018-11-22T03:16:16.821Z,29.03
2018-11-22T03:18:46.373Z,26.50
2018-11-22T03:21:16.085Z,26.37
2018-11-22T03:23:45.555Z,28.03
2018-11-22T03:26:15.409Z,27.00
2018-11-22T03:28:44.805Z,26.77
2018-11-22T03:31:14.205Z,26.70
2018-11-22T03:33:43.641Z,28.23
2018-11-22T03:36:13.028Z,28.17
2018-11-22T03:38:43.214Z,27.30
2018-11-22T03:41:12.584Z,26.27
2018-11-22T03:43:42.677Z,26.20
2018-11-22T03:46:12.388Z,26.57
2018-11-22T03:48:42.368Z,24.90
2018-11-22T03:51:12.112Z,27.00
2018-11-22T03:53:41.581Z,25.97
2018-11-22T03:56:10.965Z,26.50
2018-11-22T03:58:40.982Z,27.83
2018-11-22T04:01:11.085Z,23.20
2018-11-22T04:03:40.828Z,22.77
2018-11-22T04:06:10.257Z,25.10
2018-11-22T04:08:40.324Z,25.83
2018-11-22T04:11:09.708Z,25.10
2018-11-22T04:13:39.155Z,24.73
2018-11-22T04:16:08.636Z,25.87
2018-11-22T04:18:38.066Z,25.87
2018-11-22T04:21:08.072Z,24.60
2018-11-22T04:23:37.451Z,25.63
2018-11-22T04:26:07.208Z,24.30
2018-11-22T04:28:36.625Z,25.90
2018-11-22T04:31:06.605Z,25.07
2018-11-22T04:33:36.657Z,25.37
2018-11-22T04:36:06.508Z,24.77
2018-11-22T04:38:35.937Z,23.93
2018-11-22T04:41:05.984Z,24.17
2018-11-22T04:43:35.424Z,23.77
2018-11-22T04:46:04.900Z,22.50
2018-11-22T04:48:34.917Z,24.47
2018-11-22T04:51:04.849Z,25.83
2018-11-22T04:53:34.549Z,24.50
2018-11-22T04:56:04.033Z,24.80
2018-11-22T04:58:33.429Z,24.77
2018-11-22T05:01:03.286Z,24.70
2018-11-22T05:03:32.993Z,24.17
2018-11-22T05:06:02.733Z,23.57
2018-11-22T05:08:32.138Z,22.57
2018-11-22T05:11:01.526Z,23.47
2018-11-22T05:13:31.196Z,23.63
2018-11-22T05:16:00.940Z,23.77
2018-11-22T05:18:30.672Z,24.20
2018-11-22T05:21:00.373Z,24.77
2018-11-22T05:23:30.486Z,24.00
2018-11-22T05:25:59.928Z,23.83
2018-11-22T05:28:29.313Z,23.77
2018-11-22T05:30:59.072Z,24.57
2018-11-22T05:33:28.500Z,24.23
2018-11-22T05:35:58.225Z,24.87
2018-11-22T05:38:27.664Z,24.23
2018-11-22T05:40:57.452Z,24.33
2018-11-22T05:43:27.008Z,23.67
2018-11-22T05:45:56.677Z,24.27
2018-11-22T05:48:26.148Z,24.43
2018-11-22T05:50:55.877Z,23.70
2018-11-22T05:53:25.637Z,24.23
2018-11-22T05:55:55.036Z,25.80
2018-11-22T05:58:24.908Z,24.03
2018-11-22T06:00:54.282Z,24.33
2018-11-22T06:03:24.273Z,25.43
2018-11-22T06:05:53.970Z,24.57
2018-11-22T06:08:23.353Z,23.87
2018-11-22T06:10:53.085Z,24.13
2018-11-22T06:13:22.501Z,24.33
2018-11-22T06:15:52.595Z,24.33
2018-11-22T06:18:22.325Z,24.17
2018-11-22T06:20:51.741Z,23.83
2018-11-22T06:23:21.166Z,23.80
2018-11-22T06:25:50.541Z,26.03
2018-11-22T06:28:19.945Z,25.30
2018-11-22T06:30:49.949Z,24.63
2018-11-22T06:33:19.628Z,25.43
2018-11-22T06:35:49.005Z,23.27
2018-11-22T06:38:18.590Z,24.97
2018-11-22T06:40:47.961Z,24.97
2018-11-22T06:43:17.657Z,25.33
2018-11-22T06:45:47.361Z,24.33
2018-11-22T06:48:16.805Z,25.17
2018-11-22T06:50:46.445Z,23.50
2018-11-22T06:53:16.169Z,25.10
2018-11-22T06:55:51.495Z,25.20
2018-11-22T06:58:15.521Z,25.73
2018-11-22T07:00:44.896Z,24.87
2018-11-22T07:03:14.272Z,25.03
2018-11-22T07:05:44.024Z,24.47
2018-11-22T07:08:13.397Z,25.23
2018-11-22T07:10:42.881Z,24.40
2018-11-22T07:13:12.569Z,24.93
2018-11-22T07:15:42.335Z,25.23
2018-11-22T07:18:11.725Z,25.70
2018-11-22T07:20:41.241Z,24.50
2018-11-22T07:23:10.713Z,25.00
2018-11-22T07:25:40.193Z,25.00
2018-11-22T07:28:09.590Z,26.93
2018-11-22T07:30:42.418Z,26.03
2018-11-22T07:33:10.772Z,25.30
2018-11-22T07:35:40.301Z,24.80
2018-11-22T07:38:10.441Z,24.33
2018-11-22T07:40:40.101Z,25.77
2018-11-22T07:43:09.524Z,25.50
2018-11-22T07:45:40.680Z,25.90
2018-11-22T07:48:10.625Z,25.10
2018-11-22T07:50:40.037Z,24.90
2018-11-22T07:53:09.897Z,26.83
2018-11-22T07:55:39.285Z,25.17
2018-11-22T07:58:08.661Z,25.90
2018-11-22T08:00:40.089Z,25.20
2018-11-22T08:03:10.185Z,25.30
2018-11-22T08:05:41.492Z,25.97
2018-11-22T08:08:10.928Z,25.30
2018-11-22T08:10:40.431Z,25.10
2018-11-22T08:13:10.135Z,24.67
2018-11-22T08:15:40.565Z,23.90
2018-11-22T08:18:10.036Z,24.13
2018-11-22T08:20:39.773Z,24.63
2018-11-22T08:23:09.843Z,23.80
2018-11-22T08:25:39.260Z,25.07
2018-11-22T08:28:08.628Z,25.17
2018-11-22T08:30:38.150Z,25.33
2018-11-22T08:33:07.821Z,26.60
2018-11-22T08:35:37.204Z,25.80
2018-11-22T08:38:06.912Z,25.03
2018-11-22T08:40:36.380Z,24.50
2018-11-22T08:43:06.309Z,24.40
2018-11-22T08:45:35.726Z,24.00
2018-11-22T08:48:05.329Z,24.80
2018-11-22T08:50:35.121Z,25.87
2018-11-22T08:53:05.096Z,24.23
2018-11-22T08:55:35.277Z,25.47
2018-11-22T08:58:04.746Z,23.63
2018-11-22T09:00:34.622Z,23.43
2018-11-22T09:03:04.133Z,23.77
2018-11-22T09:05:35.212Z,25.20
2018-11-22T09:08:04.780Z,25.60
2018-11-22T09:10:34.204Z,25.47
2018-11-22T09:13:04.312Z,24.37
2018-11-22T09:15:34.605Z,24.90
2018-11-22T09:18:04.055Z,23.13
2018-11-22T09:20:34.407Z,23.63
2018-11-22T09:23:03.996Z,24.87
2018-11-22T09:25:33.477Z,23.50
2018-11-22T09:28:02.852Z,23.17
2018-11-22T09:30:33.690Z,23.57
2018-11-22T09:33:03.477Z,24.27
2018-11-22T09:35:34.092Z,23.00
2018-11-22T09:38:03.651Z,23.80
2018-11-22T09:40:34.535Z,22.73
2018-11-22T09:43:04.025Z,23.30
2018-11-22T09:45:37.742Z,21.60
2018-11-22T09:48:07.826Z,23.37
2018-11-22T09:50:37.647Z,22.77
2018-11-22T09:53:10.869Z,24.27
2018-11-22T09:55:40.634Z,22.80
2018-11-22T09:58:09.996Z,23.13
2018-11-22T10:00:39.377Z,22.07
2018-11-22T10:03:08.868Z,23.00
2018-11-22T10:05:38.725Z,22.40
2018-11-22T12:17:05.267Z,18.23
2018-11-22T12:19:33.406Z,19.03
2018-11-22T12:22:01.552Z,18.80
2018-11-22T12:24:29.691Z,18.67
2018-11-22T12:26:57.906Z,19.30
2018-11-22T12:29:26.051Z,18.10
2018-11-22T12:31:54.196Z,20.13
2018-11-22T12:34:24.483Z,18.57
2018-11-22T12:37:00.930Z,19.60
2018-11-22T12:39:29.358Z,17.87
2018-11-22T12:41:57.506Z,19.43
2018-11-22T12:44:25.638Z,18.50
2018-11-22T12:46:53.795Z,20.77
2018-11-22T12:49:21.991Z,18.20
2018-11-22T12:51:50.147Z,20.67
2018-11-22T12:54:18.287Z,19.30
2018-11-22T12:56:46.423Z,19.93
2018-11-22T12:59:14.571Z,19.90
2018-11-22T13:01:42.710Z,18.47
2018-11-22T13:04:10.859Z,18.90
2018-11-22T13:06:39.042Z,19.60
2018-11-22T13:09:08.398Z,16.63
2018-11-22T13:11:36.563Z,18.73
2018-11-22T13:14:04.734Z,18.00
2018-11-22T13:16:33.019Z,18.47
2018-11-22T13:19:01.167Z,17.77
2018-11-22T13:21:29.301Z,20.20
2018-11-22T13:23:57.557Z,20.03
2018-11-22T13:26:25.699Z,19.70
2018-11-22T13:28:53.834Z,19.27
2018-11-22T13:31:21.967Z,18.20
2018-11-22T13:33:50.111Z,18.43
2018-11-22T13:36:18.247Z,18.50
2018-11-22T13:38:46.379Z,20.03
2018-11-22T13:41:14.594Z,19.90
2018-11-22T13:43:42.731Z,19.53
2018-11-22T13:46:10.858Z,19.03
2018-11-22T13:48:38.991Z,19.37
2018-11-22T13:51:07.143Z,19.93
2018-11-22T13:53:35.299Z,19.30
2018-11-22T13:56:03.435Z,19.20
2018-11-22T13:58:31.585Z,18.27
2018-11-22T14:00:59.823Z,18.30
2018-11-22T14:03:27.959Z,20.03
2018-11-22T14:05:56.087Z,18.40
2018-11-22T14:08:24.222Z,18.30
2018-11-22T14:10:52.811Z,18.43
2018-11-22T14:13:20.544Z,19.27
2018-11-22T14:15:48.688Z,19.87
2018-11-22T14:18:16.830Z,18.80
2018-11-22T14:20:44.979Z,18.70
2018-11-22T14:23:13.241Z,19.07
2018-11-22T14:25:41.398Z,18.90
2018-11-22T14:28:09.526Z,18.20
2018-11-22T14:30:37.678Z,19.17
2018-11-22T14:33:05.831Z,19.00
2018-11-22T14:35:34.045Z,19.17
2018-11-22T14:38:02.168Z,18.37
2018-11-22T14:40:31.744Z,19.40
2018-11-22T14:43:00.013Z,19.47
2018-11-22T14:45:28.971Z,18.03
2018-11-22T14:47:58.168Z,19.07
2018-11-22T14:50:31.214Z,18.40
2018-11-22T14:53:07.883Z,20.00
2018-11-22T14:55:36.070Z,17.67
2018-11-22T14:58:04.195Z,18.43
2018-11-22T15:00:32.345Z,19.20
2018-11-22T15:03:00.486Z,16.57
2018-11-22T15:05:28.631Z,18.40
2018-11-22T15:07:56.769Z,18.20
2018-11-22T15:10:24.910Z,18.60
2018-11-22T15:12:53.041Z,17.40
2018-11-22T15:15:22.655Z,18.10
2018-11-22T15:17:50.782Z,16.17
2018-11-22T15:20:19.926Z,18.07
2018-11-22T15:22:48.815Z,18.83
2018-11-22T15:25:18.639Z,24.10
2018-11-22T15:27:46.779Z,24.70
2018-11-22T15:30:16.327Z,23.13
2018-11-22T15:32:44.545Z,25.17
2018-11-22T15:35:14.027Z,31.50
2018-11-22T15:37:42.286Z,32.27
2018-11-22T15:40:12.820Z,30.30
2018-11-22T15:42:40.970Z,27.20
2018-11-22T15:45:11.221Z,28.70
2018-11-22T15:47:39.378Z,33.07
2018-11-22T15:50:09.203Z,33.43
2018-11-22T15:52:37.360Z,41.10
2018-11-22T15:55:06.014Z,40.80
2018-11-22T15:57:34.154Z,43.97
2018-11-22T16:00:02.426Z,38.90
2018-11-22T16:02:30.595Z,40.33
2018-11-22T16:04:58.783Z,37.00
2018-11-22T16:07:26.951Z,36.80
2018-11-22T16:09:55.131Z,27.03
2018-11-22T16:12:23.372Z,23.37
2018-11-22T16:14:51.494Z,21.77
2018-11-22T16:17:19.655Z,22.00
2018-11-22T16:19:47.783Z,28.13
2018-11-22T16:22:15.927Z,35.10
2018-11-22T16:24:44.158Z,35.47
2018-11-22T16:27:12.349Z,29.27
2018-11-22T16:29:40.490Z,25.50
2018-11-22T16:32:08.654Z,22.97
2018-11-22T16:34:36.868Z,20.50
2018-11-22T16:37:05.152Z,22.67
2018-11-22T16:39:33.279Z,19.30
2018-11-22T16:42:01.423Z,28.23
2018-11-22T16:44:29.555Z,21.87
2018-11-22T16:46:57.727Z,18.70
2018-11-22T16:49:25.882Z,18.80
2018-11-22T16:51:54.032Z,20.13
2018-11-22T16:54:22.178Z,24.20
2018-11-22T16:56:50.351Z,23.30
2018-11-22T16:59:18.523Z,21.20
2018-11-22T17:01:47.050Z,22.53
2018-11-22T17:04:15.175Z,23.63
2018-11-22T17:06:43.348Z,19.43
2018-11-22T17:09:11.498Z,18.73
2018-11-22T17:11:39.643Z,18.20
2018-11-22T17:14:07.916Z,18.50
2018-11-22T17:16:36.150Z,18.97
2018-11-22T17:19:04.330Z,19.60
2018-11-22T17:21:32.479Z,20.70
2018-11-22T17:24:00.618Z,20.70
2018-11-22T17:26:28.755Z,20.17
2018-11-22T17:28:56.936Z,18.90
2018-11-22T17:31:25.174Z,18.43
2018-11-22T17:33:53.307Z,18.60
2018-11-22T17:36:21.519Z,18.87
2018-11-22T17:38:49.693Z,19.77
2018-11-22T17:41:17.873Z,19.43
2018-11-22T17:43:45.995Z,17.13
2018-11-22T17:46:14.147Z,18.33
2018-11-22T17:48:42.284Z,17.90
2018-11-22T17:51:10.419Z,18.90
2018-11-22T17:53:38.559Z,17.40
2018-11-22T17:56:06.732Z,17.53
2018-11-22T17:58:34.925Z,17.80
2018-11-22T18:01:03.092Z,18.33
2018-11-22T18:03:31.246Z,17.23
2018-11-22T18:05:59.411Z,18.30
2018-11-22T18:08:27.578Z,20.20
2018-11-22T18:10:55.714Z,19.17
2018-11-22T18:13:23.869Z,18.33
2018-11-22T18:15:58.050Z,19.40
2018-11-22T18:18:26.849Z,19.40
2018-11-22T18:20:55.061Z,22.30
2018-11-22T18:23:23.324Z,23.00
2018-11-22T18:25:51.469Z,20.27
2018-11-22T18:28:19.614Z,17.97
2018-11-22T18:30:47.750Z,18.43
2018-11-22T18:33:15.899Z,18.63
2018-11-22T18:35:44.039Z,17.03
2018-11-22T18:38:12.214Z,18.30
2018-11-22T18:40:41.659Z,17.97
2018-11-22T18:43:09.845Z,18.47
2018-11-22T18:45:40.263Z,19.27
2018-11-22T18:48:09.778Z,19.83
2018-11-22T18:50:38.497Z,24.97
2018-11-22T18:53:06.901Z,24.30
2018-11-22T18:55:35.019Z,26.40
2018-11-22T18:58:03.163Z,25.30
2018-11-22T19:00:35.677Z,23.43
2018-11-22T19:03:05.723Z,28.03
2018-11-22T19:05:33.879Z,38.10
2018-11-22T19:08:02.163Z,51.60
2018-11-22T19:10:32.717Z,55.73
2018-11-22T19:13:02.106Z,85.07
2018-11-22T19:15:31.501Z,70.40
2018-11-22T19:17:59.811Z,68.83
2018-11-22T19:20:30.415Z,62.70
2018-11-22T19:22:59.281Z,59.87
2018-11-22T19:25:27.415Z,53.10
2018-11-22T19:27:56.501Z,53.30
2018-11-22T19:30:25.995Z,50.97
2018-11-22T19:32:55.358Z,37.67
2018-11-22T19:35:24.939Z,38.10
2018-11-22T19:37:53.055Z,34.13
2018-11-22T19:40:23.627Z,38.40
2018-11-22T19:42:53.535Z,37.87
2018-11-22T19:45:23.055Z,34.10
2018-11-22T19:47:51.235Z,33.23
2018-11-22T19:50:20.859Z,30.77
2018-11-22T19:52:49.726Z,30.13
2018-11-22T19:55:19.360Z,29.03
2018-11-22T19:57:48.947Z,26.10
2018-11-22T20:00:18.163Z,24.40
2018-11-22T20:02:46.755Z,21.73
2018-11-22T20:05:15.953Z,22.33
2018-11-22T20:07:45.285Z,22.30
2018-11-22T20:10:15.867Z,20.13
2018-11-22T20:12:44.157Z,19.37
2018-11-22T20:15:12.851Z,21.30
2018-11-22T20:17:41.220Z,21.57
2018-11-22T20:20:10.436Z,22.77
2018-11-22T20:22:39.011Z,29.83
2018-11-22T20:25:07.175Z,27.27
2018-11-22T20:27:35.466Z,25.50
2018-11-22T20:30:04.678Z,23.57
2018-11-22T20:32:38.831Z,25.10
2018-11-22T20:35:01.002Z,24.33
2018-11-22T20:37:29.242Z,21.93
2018-11-22T20:39:57.340Z,23.40
2018-11-22T20:42:25.475Z,22.73
2018-11-22T20:44:53.646Z,22.73
2018-11-22T20:47:21.861Z,23.13
2018-11-22T20:49:49.994Z,22.53
2018-11-22T20:52:18.135Z,21.73
2018-11-22T20:54:46.290Z,22.97
2018-11-22T20:57:14.432Z,23.87
2018-11-22T20:59:42.572Z,23.27
2018-11-22T21:02:10.695Z,25.13
2018-11-22T21:04:38.859Z,28.47
2018-11-22T21:07:07.453Z,23.67
2018-11-22T21:09:35.630Z,23.07
2018-11-22T21:12:03.770Z,23.07
2018-11-22T21:14:31.931Z,22.40
2018-11-22T21:17:00.723Z,22.50
2018-11-22T21:19:28.215Z,21.60
2018-11-22T21:21:56.511Z,21.47
2018-11-22T21:24:24.650Z,21.23
2018-11-22T21:26:52.798Z,20.77
2018-11-22T21:29:20.947Z,20.50
2018-11-22T21:31:49.095Z,19.83
2018-11-22T21:34:17.249Z,21.10
2018-11-22T21:36:45.398Z,21.90
2018-11-22T21:39:13.755Z,20.60
2018-11-22T21:41:41.923Z,21.40
2018-11-22T21:44:10.063Z,21.20
2018-11-22T21:46:38.200Z,21.57
2018-11-22T21:49:06.332Z,22.37
2018-11-22T21:51:39.409Z,22.90
2018-11-22T21:54:02.624Z,21.50
2018-11-22T21:56:30.799Z,22.47
2018-11-22T21:58:59.273Z,22.57
2018-11-22T22:01:27.410Z,22.03
2018-11-22T22:03:55.547Z,21.50
2018-11-22T22:06:23.687Z,24.00
2018-11-22T22:08:51.931Z,21.17
2018-11-22T22:11:20.072Z,21.07
2018-11-22T22:13:48.214Z,21.97
2018-11-22T22:16:16.364Z,20.27
2018-11-22T22:18:44.503Z,20.10
2018-11-22T22:21:12.635Z,20.47
2018-11-22T22:23:40.766Z,21.00
2018-11-22T22:26:08.918Z,22.00
2018-11-22T22:28:37.072Z,21.70
2018-11-22T22:31:05.454Z,21.63
2018-11-22T22:33:33.599Z,19.70
2018-11-22T22:36:01.748Z,20.93
2018-11-22T22:38:29.882Z,21.60
2018-11-22T22:40:58.027Z,21.70
2018-11-22T22:43:26.225Z,19.10
2018-11-22T22:45:54.379Z,20.13
2018-11-22T22:48:22.514Z,21.23
2018-11-22T22:50:50.664Z,20.60
2018-11-22T22:53:18.787Z,20.00
2018-11-22T22:55:46.940Z,21.07
2018-11-22T22:58:15.099Z,21.27
2018-11-22T23:00:49.563Z,20.57
2018-11-22T23:03:17.715Z,20.57
2018-11-22T23:05:45.862Z,20.33
2018-11-22T23:08:14.008Z,20.20
2018-11-22T23:10:42.150Z,19.83
2018-11-22T23:13:10.291Z,19.90
2018-11-22T23:15:38.759Z,19.33
2018-11-22T23:18:06.903Z,19.27
2018-11-22T23:20:36.406Z,19.73
2018-11-22T23:23:04.862Z,19.77
2018-11-22T23:25:33.013Z,19.40
2018-11-22T23:28:01.151Z,20.80
2018-11-22T23:30:31.571Z,20.13
2018-11-22T23:33:04.306Z,20.73
2018-11-22T23:35:32.445Z,20.60
2018-11-22T23:38:00.587Z,21.70
2018-11-22T23:40:29.815Z,23.03
2018-11-22T23:42:57.958Z,22.17
2018-11-22T23:45:27.607Z,21.10
2018-11-22T23:47:55.797Z,19.57
2018-11-22T23:50:25.382Z,20.40
2018-11-22T23:52:54.803Z,20.90
2018-11-22T23:55:22.938Z,19.90
2018-11-22T23:57:51.111Z,19.90
